createdAt,value
2022-09-26T00:02:10.567Z,12.65
2022-09-26T00:04:38.802Z,12.59
2022-09-26T00:07:06.944Z,12.62
2022-09-26T00:09:35.238Z,12.57
2022-09-26T00:12:04.449Z,12.59
2022-09-26T00:14:34.146Z,12.59
2022-09-26T00:17:02.510Z,12.57
2022-09-26T00:19:30.800Z,12.52
2022-09-26T00:21:58.963Z,12.53
2022-09-26T00:24:27.251Z,12.52
2022-09-26T00:26:55.395Z,12.47
2022-09-26T00:29:23.495Z,12.47
2022-09-26T00:31:53.721Z,12.42
2022-09-26T00:34:22.093Z,12.46
2022-09-26T00:36:50.384Z,12.46
2022-09-26T00:39:18.823Z,12.44
2022-09-26T00:41:47.007Z,12.41
2022-09-26T00:44:47.066Z,12.38
2022-09-26T00:47:29.905Z,12.31
2022-09-26T00:50:02.521Z,12.29
2022-09-26T00:52:35.817Z,12.29
2022-09-26T00:55:07.057Z,12.26
2022-09-26T00:57:40.529Z,12.22
2022-09-26T01:00:11.858Z,12.20
2022-09-26T01:02:42.429Z,12.13
2022-09-26T01:05:13.892Z,12.18
2022-09-26T01:07:42.439Z,12.14
2022-09-26T01:10:12.214Z,12.13
2022-09-26T01:12:40.500Z,12.17
2022-09-26T01:15:09.651Z,12.11
2022-09-26T01:17:40.136Z,12.15
2022-09-26T01:20:21.774Z,12.12
2022-09-26T01:23:35.239Z,12.13
2022-09-26T01:26:28.977Z,12.14
2022-09-26T01:29:31.933Z,12.06
2022-09-26T01:32:27.376Z,12.08
2022-09-26T01:35:02.409Z,12.05
2022-09-26T01:37:39.326Z,12.03
2022-09-26T01:40:13.214Z,12.00
2022-09-26T01:42:52.859Z,11.94
2022-09-26T01:45:24.209Z,11.91
2022-09-26T01:48:00.358Z,11.87
2022-09-26T01:50:36.247Z,11.90
2022-09-26T01:53:10.864Z,11.90
2022-09-26T01:55:42.594Z,11.86
2022-09-26T01:58:16.009Z,11.87
2022-09-26T02:00:47.705Z,11.91
2022-09-26T02:03:22.994Z,11.84
2022-09-26T02:05:56.772Z,11.87
2022-09-26T02:08:31.073Z,11.90
2022-09-26T02:11:05.141Z,11.93
2022-09-26T02:13:38.278Z,11.93
2022-09-26T02:16:12.007Z,11.96
2022-09-26T02:18:47.158Z,12.00
2022-09-26T02:21:19.115Z,12.04
2022-09-26T02:23:48.564Z,12.03
2022-09-26T02:26:17.305Z,12.05
2022-09-26T02:28:45.801Z,12.04
2022-09-26T02:31:22.873Z,12.07
2022-09-26T02:33:53.886Z,12.14
2022-09-26T02:36:25.582Z,12.14
2022-09-26T02:38:54.606Z,12.09
2022-09-26T02:41:49.494Z,12.11
2022-09-26T02:44:37.331Z,12.09
2022-09-26T02:47:34.757Z,12.08
2022-09-26T02:50:26.316Z,12.01
2022-09-26T02:53:06.735Z,12.04
2022-09-26T02:55:46.358Z,12.06
2022-09-26T02:58:44.623Z,12.09
2022-09-26T03:01:21.837Z,12.07
2022-09-26T03:03:57.319Z,12.09
2022-09-26T03:06:36.238Z,12.10
2022-09-26T03:09:06.232Z,12.13
2022-09-26T03:11:36.263Z,12.12
2022-09-26T03:14:05.409Z,12.19
2022-09-26T03:16:38.178Z,12.22
2022-09-26T03:19:11.836Z,12.19
2022-09-26T03:21:41.339Z,12.20
2022-09-26T03:24:09.622Z,12.24
2022-09-26T03:26:39.838Z,12.24
2022-09-26T03:29:07.967Z,12.28
2022-09-26T03:31:37.794Z,12.30
2022-09-26T03:34:07.907Z,12.29
2022-09-26T03:36:36.100Z,12.29
2022-09-26T03:39:06.459Z,12.24
2022-09-26T03:41:39.672Z,12.16
2022-09-26T03:44:11.296Z,12.19
2022-09-26T03:46:58.056Z,12.11
2022-09-26T03:49:26.173Z,12.09
2022-09-26T03:51:54.245Z,12.12
2022-09-26T03:54:23.985Z,12.10
2022-09-26T03:56:52.128Z,12.07
2022-09-26T03:59:20.221Z,12.06
2022-09-26T04:01:49.223Z,12.07
2022-09-26T04:04:17.278Z,12.01
2022-09-26T04:06:46.106Z,12.04
2022-09-26T04:09:17.636Z,11.95
2022-09-26T04:11:53.525Z,11.98
2022-09-26T04:14:22.570Z,11.98
2022-09-26T04:16:58.231Z,12.01
2022-09-26T04:19:46.845Z,11.98
2022-09-26T04:22:15.031Z,11.97
2022-09-26T04:24:44.612Z,11.97
2022-09-26T04:27:16.421Z,11.94
2022-09-26T04:29:47.353Z,11.96
2022-09-26T04:32:24.138Z,11.95
2022-09-26T04:35:12.181Z,11.90
2022-09-26T04:37:41.214Z,11.94
2022-09-26T04:40:11.693Z,11.98
2022-09-26T04:42:48.538Z,12.00
2022-09-26T04:45:16.954Z,12.04
2022-09-26T04:47:45.161Z,12.06
2022-09-26T04:50:28.972Z,12.04
2022-09-26T04:53:06.436Z,12.09
2022-09-26T04:55:38.187Z,12.06
2022-09-26T04:58:07.660Z,12.05
2022-09-26T05:00:37.206Z,12.08
2022-09-26T05:03:07.426Z,12.07
2022-09-26T05:05:36.357Z,12.07
2022-09-26T05:08:05.340Z,12.13
2022-09-26T05:10:33.470Z,12.14
2022-09-26T05:13:03.748Z,12.14
2022-09-26T05:15:38.950Z,12.15
2022-09-26T05:18:09.585Z,12.19
2022-09-26T05:20:44.882Z,12.16
2022-09-26T05:23:42.141Z,12.17
2022-09-26T05:26:24.102Z,12.20
2022-09-26T05:28:57.001Z,12.20
2022-09-26T05:31:33.975Z,12.22
2022-09-26T05:34:02.807Z,12.28
2022-09-26T05:36:30.832Z,12.28
2022-09-26T05:38:59.000Z,12.27
2022-09-26T05:41:28.558Z,12.29
2022-09-26T05:43:57.090Z,12.32
2022-09-26T05:46:28.410Z,12.36
2022-09-26T05:49:01.292Z,12.36
2022-09-26T05:51:29.488Z,12.34
2022-09-26T05:53:57.581Z,12.40
2022-09-26T05:56:27.672Z,12.44
2022-09-26T05:59:19.096Z,12.48
2022-09-26T06:02:06.723Z,12.50
2022-09-26T06:04:57.500Z,12.49
2022-09-26T06:07:51.880Z,12.57
2022-09-26T06:10:35.233Z,12.59
2022-09-26T06:13:03.461Z,12.56
2022-09-26T06:15:34.809Z,12.59
2022-09-26T06:18:05.465Z,12.60
2022-09-26T06:20:35.434Z,12.62
2022-09-26T06:23:03.947Z,12.72
2022-09-26T06:25:33.038Z,12.68
2022-09-26T06:28:03.497Z,12.71
2022-09-26T06:30:33.226Z,12.70
2022-09-26T06:33:24.641Z,12.74
2022-09-26T06:36:03.678Z,12.76
2022-09-26T06:38:37.391Z,12.78
2022-09-26T06:41:09.516Z,12.83
2022-09-26T06:43:37.688Z,12.83
2022-09-26T06:46:24.151Z,12.83
2022-09-26T06:49:12.668Z,12.89
2022-09-26T06:52:06.811Z,12.83
2022-09-26T06:54:34.939Z,12.93
2022-09-26T06:57:02.984Z,12.89
2022-09-26T06:59:32.791Z,12.88
2022-09-26T07:02:12.389Z,13.01
2022-09-26T07:04:55.101Z,12.93
2022-09-26T07:07:33.576Z,12.98
2022-09-26T07:10:01.652Z,12.91
2022-09-26T07:12:40.933Z,13.00
2022-09-26T07:15:09.791Z,13.04
2022-09-26T07:17:37.890Z,13.07
2022-09-26T07:20:11.147Z,13.07
2022-09-26T07:23:04.679Z,13.08
2022-09-26T07:25:33.498Z,13.13
2022-09-26T07:28:03.381Z,13.09
2022-09-26T07:30:45.462Z,13.14
2022-09-26T07:33:20.089Z,13.07
2022-09-26T07:35:52.149Z,13.16
2022-09-26T07:38:23.461Z,13.18
2022-09-26T07:40:54.940Z,13.19
2022-09-26T07:43:35.837Z,13.26
2022-09-26T07:46:29.200Z,13.27
2022-09-26T07:49:15.541Z,13.28
2022-09-26T07:52:02.416Z,13.32
2022-09-26T07:54:49.777Z,13.38
2022-09-26T07:57:36.776Z,13.40
2022-09-26T08:00:24.118Z,13.47
2022-09-26T08:03:04.836Z,13.57
2022-09-26T08:05:34.867Z,13.76
2022-09-26T08:08:04.304Z,13.87
2022-09-26T08:11:17.402Z,13.89
2022-09-26T08:14:10.231Z,14.02
2022-09-26T08:16:58.317Z,14.00
2022-09-26T08:19:26.772Z,13.91
2022-09-26T08:21:55.264Z,13.84
2022-09-26T08:24:24.119Z,13.72
2022-09-26T08:26:56.954Z,13.70
2022-09-26T08:29:32.253Z,13.42
2022-09-26T08:32:03.225Z,13.40
2022-09-26T08:34:35.116Z,13.47
2022-09-26T08:37:26.234Z,13.43
2022-09-26T08:40:17.339Z,13.49
2022-09-26T08:43:14.713Z,13.71
2022-09-26T08:46:26.297Z,13.66
2022-09-26T08:49:32.524Z,13.53
2022-09-26T08:52:06.192Z,13.55
2022-09-26T08:54:38.993Z,13.80
2022-09-26T08:57:15.170Z,13.93
2022-09-26T08:59:47.385Z,14.00
2022-09-26T09:02:24.614Z,13.95
2022-09-26T09:05:04.669Z,13.94
2022-09-26T09:07:35.800Z,13.86
2022-09-26T09:10:07.618Z,13.93
2022-09-26T09:13:00.819Z,13.91
2022-09-26T09:16:17.967Z,13.77
2022-09-26T09:19:17.366Z,13.91
2022-09-26T09:22:24.973Z,13.70
2022-09-26T09:25:05.574Z,13.86
2022-09-26T09:27:53.681Z,14.00
2022-09-26T09:30:26.291Z,13.98
2022-09-26T09:33:20.141Z,13.88
2022-09-26T09:36:02.694Z,13.91
2022-09-26T09:39:07.251Z,13.91
2022-09-26T09:42:07.885Z,13.95
2022-09-26T09:44:46.994Z,13.92
2022-09-26T09:47:17.378Z,13.88
2022-09-26T09:49:49.469Z,13.80
2022-09-26T09:52:36.647Z,13.85
2022-09-26T09:55:26.622Z,13.95
2022-09-26T09:58:12.442Z,13.89
2022-09-26T10:00:51.050Z,13.88
2022-09-26T10:03:27.919Z,13.82
2022-09-26T10:06:02.264Z,13.58
2022-09-26T10:08:37.169Z,13.77
2022-09-26T10:11:22.377Z,13.83
2022-09-26T10:14:03.284Z,14.09
2022-09-26T10:17:22.584Z,14.26
2022-09-26T10:19:56.564Z,14.48
2022-09-26T10:22:35.180Z,14.41
2022-09-26T10:25:08.667Z,14.38
2022-09-26T10:27:39.836Z,14.27
2022-09-26T10:30:26.000Z,14.03
2022-09-26T10:33:00.568Z,14.25
2022-09-26T10:35:46.081Z,14.26
2022-09-26T10:38:23.870Z,14.41
2022-09-26T10:41:00.280Z,14.52
2022-09-26T10:43:36.122Z,14.73
2022-09-26T10:46:15.924Z,14.98
2022-09-26T10:49:05.711Z,14.92
2022-09-26T10:52:02.361Z,14.91
2022-09-26T10:54:41.252Z,14.53
2022-09-26T10:57:20.885Z,14.51
2022-09-26T10:59:50.099Z,14.27
2022-09-26T11:02:23.865Z,14.16
2022-09-26T11:05:15.324Z,14.34
2022-09-26T11:08:10.181Z,14.25
2022-09-26T11:11:04.802Z,14.51
2022-09-26T11:13:48.051Z,14.54
2022-09-26T11:16:20.370Z,14.60
2022-09-26T11:19:03.971Z,14.36
2022-09-26T11:21:41.363Z,14.41
2022-09-26T11:24:17.182Z,14.45
2022-09-26T11:26:59.707Z,14.39
2022-09-26T11:29:41.925Z,14.54
2022-09-26T11:32:18.839Z,14.55
2022-09-26T11:34:54.454Z,14.38
2022-09-26T11:38:03.558Z,14.50
2022-09-26T11:41:02.789Z,14.67
2022-09-26T11:43:54.529Z,14.67
2022-09-26T11:46:55.844Z,14.56
2022-09-26T11:50:01.601Z,15.00
2022-09-26T11:52:49.547Z,15.27
2022-09-26T11:55:28.242Z,14.76
2022-09-26T11:58:04.022Z,14.85
2022-09-26T12:00:44.456Z,14.60
2022-09-26T12:03:51.222Z,14.40
2022-09-26T12:06:33.450Z,14.28
2022-09-26T12:09:32.557Z,14.27
2022-09-26T12:12:09.722Z,14.01
2022-09-26T12:14:45.627Z,14.03
2022-09-26T12:17:26.716Z,13.69
2022-09-26T12:20:02.339Z,13.71
2022-09-26T12:22:36.575Z,13.84
2022-09-26T12:25:26.192Z,13.64
2022-09-26T12:28:06.195Z,13.61
2022-09-26T12:30:41.470Z,13.69
2022-09-26T12:33:31.105Z,13.72
2022-09-26T12:36:11.439Z,13.79
2022-09-26T12:38:57.786Z,13.91
2022-09-26T12:41:45.820Z,14.06
2022-09-26T12:44:31.698Z,14.21
2022-09-26T12:47:15.784Z,14.17
2022-09-26T12:50:02.565Z,14.26
2022-09-26T12:52:45.205Z,14.36
2022-09-26T12:55:27.893Z,14.40
2022-09-26T12:58:09.423Z,14.19
2022-09-26T13:00:46.685Z,14.20
2022-09-26T13:03:42.839Z,14.44
2022-09-26T13:06:56.964Z,14.30
2022-09-26T13:09:51.582Z,14.32
2022-09-26T13:12:38.996Z,14.18
2022-09-26T13:15:19.724Z,14.08
2022-09-26T13:17:52.356Z,14.07
2022-09-26T13:20:27.315Z,14.28
2022-09-26T13:23:03.682Z,14.25
2022-09-26T13:25:38.419Z,14.28
2022-09-26T13:28:11.189Z,14.38
2022-09-26T13:30:43.165Z,14.27
2022-09-26T13:33:18.460Z,14.23
2022-09-26T13:35:48.287Z,14.30
2022-09-26T13:38:35.705Z,14.29
2022-09-26T13:41:14.113Z,14.22
2022-09-26T13:43:56.456Z,14.29
2022-09-26T13:46:36.421Z,14.21
2022-09-26T13:49:27.721Z,13.86
2022-09-26T13:52:10.695Z,13.82
2022-09-26T13:54:57.970Z,13.61
2022-09-26T13:57:37.514Z,13.51
2022-09-26T14:00:24.103Z,13.45
2022-09-26T14:03:40.170Z,13.35
2022-09-26T14:06:32.125Z,13.38
2022-09-26T14:09:27.885Z,13.21
2022-09-26T14:12:20.026Z,12.97
2022-09-26T14:15:07.087Z,12.92
2022-09-26T14:18:09.760Z,12.94
2022-09-26T14:20:56.406Z,12.85
2022-09-26T14:23:46.368Z,12.81
2022-09-26T14:26:20.998Z,12.92
2022-09-26T14:28:55.646Z,12.88
2022-09-26T14:31:57.823Z,12.93
2022-09-26T14:34:28.688Z,13.00
2022-09-26T14:37:02.742Z,12.99
2022-09-26T14:39:36.001Z,13.04
2022-09-26T14:42:23.639Z,12.88
2022-09-26T14:44:58.476Z,12.98
2022-09-26T14:47:28.655Z,13.04
2022-09-26T14:50:03.093Z,13.08
2022-09-26T14:52:31.711Z,13.02
2022-09-26T14:55:03.371Z,13.17
2022-09-26T14:57:34.124Z,13.08
2022-09-26T15:00:24.075Z,13.16
2022-09-26T15:03:01.012Z,13.20
2022-09-26T15:05:30.584Z,13.24
2022-09-26T15:08:01.124Z,13.30
2022-09-26T15:10:41.601Z,13.43
2022-09-26T15:13:22.016Z,13.39
2022-09-26T15:15:59.005Z,13.44
2022-09-26T15:18:35.718Z,13.51
2022-09-26T15:21:13.665Z,13.54
2022-09-26T15:23:50.787Z,13.49
2022-09-26T15:26:22.171Z,13.53
2022-09-26T15:28:52.879Z,13.52
2022-09-26T15:31:28.801Z,13.58
2022-09-26T15:34:01.504Z,13.68
2022-09-26T15:36:35.935Z,13.76
2022-09-26T15:39:25.467Z,13.64
2022-09-26T15:42:10.870Z,13.57
2022-09-26T15:44:49.180Z,13.62
2022-09-26T15:47:31.745Z,13.62
2022-09-26T15:50:04.739Z,13.63
2022-09-26T15:52:35.419Z,13.63
2022-09-26T15:55:06.218Z,13.65
2022-09-26T15:57:35.060Z,13.61
2022-09-26T16:00:04.055Z,13.51
2022-09-26T16:02:36.547Z,13.40
2022-09-26T16:05:06.133Z,13.37
2022-09-26T16:07:38.044Z,13.32
2022-09-26T16:10:18.054Z,13.38
2022-09-26T16:13:10.807Z,13.45
2022-09-26T16:15:44.925Z,13.39
2022-09-26T16:18:26.421Z,13.38
2022-09-26T16:21:15.900Z,13.43
2022-09-26T16:23:47.435Z,13.53
2022-09-26T16:26:30.177Z,13.57
2022-09-26T16:29:00.322Z,13.57
2022-09-26T16:31:34.458Z,13.56
2022-09-26T16:34:07.146Z,13.53
2022-09-26T16:36:36.118Z,13.48
2022-09-26T16:39:07.270Z,13.49
2022-09-26T16:44:35.367Z,13.51
2022-09-26T16:47:07.347Z,13.47
2022-09-26T16:49:46.845Z,13.38
2022-09-26T16:52:34.333Z,13.27
2022-09-26T16:55:04.042Z,13.29
2022-09-26T16:57:35.225Z,13.27
2022-09-26T17:00:24.913Z,13.25
2022-09-26T17:02:53.152Z,13.25
2022-09-26T17:05:23.033Z,13.15
2022-09-26T17:07:51.750Z,13.14
2022-09-26T17:10:21.967Z,13.12
2022-09-26T17:12:53.076Z,13.06
2022-09-26T17:15:27.289Z,13.06
2022-09-26T17:17:57.000Z,13.07
2022-09-26T17:20:26.863Z,13.07
2022-09-26T17:22:55.740Z,13.06
2022-09-26T17:25:25.542Z,13.06
2022-09-26T17:27:57.780Z,13.04
2022-09-26T17:30:25.926Z,13.10
2022-09-26T17:32:55.073Z,13.07
2022-09-26T17:35:29.654Z,13.01
2022-09-26T17:37:58.155Z,13.05
2022-09-26T17:40:28.084Z,13.05
2022-09-26T17:42:59.806Z,13.14
2022-09-26T17:45:31.145Z,13.09
2022-09-26T17:48:01.476Z,13.03
2022-09-26T17:50:32.978Z,13.00
2022-09-26T17:53:03.257Z,13.07
2022-09-26T17:55:31.707Z,13.03
2022-09-26T17:58:00.138Z,13.03
2022-09-26T18:00:32.938Z,12.98
2022-09-26T18:03:04.235Z,13.01
2022-09-26T18:05:37.562Z,13.01
2022-09-26T18:08:12.206Z,13.02
2022-09-26T18:10:46.025Z,13.00
2022-09-26T18:13:16.489Z,12.97
2022-09-26T18:15:50.311Z,13.01
2022-09-26T18:18:24.762Z,12.98
2022-09-26T18:20:57.345Z,12.99
2022-09-26T18:23:57.384Z,13.03
2022-09-26T18:30:25.407Z,12.98
2022-09-26T18:32:56.581Z,12.99
2022-09-26T18:35:27.683Z,13.00
2022-09-26T18:37:57.293Z,13.06
2022-09-26T18:40:30.036Z,13.00
2022-09-26T18:42:59.205Z,13.00
2022-09-26T18:45:30.923Z,13.06
2022-09-26T18:47:59.958Z,12.97
2022-09-26T18:50:34.246Z,13.02
2022-09-26T18:53:03.996Z,12.97
2022-09-26T18:55:49.645Z,13.04
2022-09-26T18:58:27.420Z,12.99
2022-09-26T19:00:59.656Z,12.85
2022-09-26T19:03:29.969Z,12.89
2022-09-26T19:06:03.498Z,12.88
2022-09-26T19:08:35.818Z,12.90
2022-09-26T19:11:13.262Z,12.80
2022-09-26T19:13:41.599Z,12.81
2022-09-26T19:16:10.663Z,12.76
2022-09-26T19:18:40.723Z,12.78
2022-09-26T19:21:18.391Z,12.78
2022-09-26T19:23:48.947Z,12.78
2022-09-26T19:26:24.931Z,12.75
2022-09-26T19:28:53.505Z,12.74
2022-09-26T19:31:22.006Z,12.78
2022-09-26T19:33:51.036Z,12.79
2022-09-26T19:36:20.683Z,12.80
2022-09-26T19:38:50.254Z,12.77
2022-09-26T19:41:18.452Z,12.62
2022-09-26T19:43:46.687Z,12.68
2022-09-26T19:46:23.540Z,12.72
2022-09-26T19:48:52.102Z,12.66
2022-09-26T19:51:20.286Z,12.63
2022-09-26T19:53:48.497Z,12.67
2022-09-26T19:56:18.413Z,12.60
2022-09-26T19:58:48.587Z,12.62
2022-09-26T20:01:19.330Z,12.60
2022-09-26T20:03:47.496Z,12.61
2022-09-26T20:06:18.906Z,12.61
2022-09-26T20:08:47.274Z,12.56
2022-09-26T20:11:17.298Z,12.52
2022-09-26T20:14:04.431Z,12.51
2022-09-26T20:16:34.668Z,12.52
2022-09-26T20:19:05.894Z,12.54
2022-09-26T20:21:35.141Z,12.41
2022-09-26T20:24:03.786Z,12.40
2022-09-26T20:26:34.160Z,12.40
2022-09-26T20:29:03.708Z,12.42
2022-09-26T20:31:31.941Z,12.40
2022-09-26T20:34:00.335Z,12.42
2022-09-26T20:36:32.053Z,12.32
2022-09-26T20:39:03.313Z,12.21
2022-09-26T20:41:35.258Z,12.12
2022-09-26T20:44:08.437Z,12.13
2022-09-26T20:46:39.056Z,12.23
2022-09-26T20:49:09.993Z,12.20
2022-09-26T20:51:38.454Z,12.18
2022-09-26T20:54:15.956Z,12.12
2022-09-26T20:56:44.309Z,12.05
2022-09-26T20:59:15.076Z,12.06
2022-09-26T21:01:43.465Z,12.02
2022-09-26T21:04:15.322Z,12.09
2022-09-26T21:06:45.004Z,12.10
2022-09-26T21:09:18.740Z,12.11
2022-09-26T21:11:48.906Z,11.98
2022-09-26T21:14:18.770Z,12.03
2022-09-26T21:16:51.494Z,11.94
2022-09-26T21:19:22.832Z,12.08
2022-09-26T21:21:57.680Z,11.94
2022-09-26T21:24:38.305Z,11.94
2022-09-26T21:27:10.873Z,11.98
2022-09-26T21:29:40.551Z,11.81
2022-09-26T21:32:10.767Z,11.75
2022-09-26T21:34:39.098Z,11.69
2022-09-26T21:37:10.729Z,11.83
2022-09-26T21:39:40.115Z,11.75
2022-09-26T21:42:08.486Z,11.78
2022-09-26T21:44:43.293Z,11.72
2022-09-26T21:47:11.630Z,11.76
2022-09-26T21:49:39.711Z,11.70
2022-09-26T21:52:13.164Z,11.75
2022-09-26T21:54:44.178Z,11.70
2022-09-26T21:57:14.033Z,11.66
2022-09-26T21:59:44.831Z,11.66
2022-09-26T22:02:12.951Z,11.62
2022-09-26T22:04:41.036Z,11.44
2022-09-26T22:07:09.527Z,11.31
2022-09-26T22:09:37.586Z,11.46
2022-09-26T22:12:05.809Z,11.42
2022-09-26T22:14:33.953Z,11.30
2022-09-26T22:17:04.191Z,11.31
2022-09-26T22:19:33.522Z,11.26
2022-09-26T22:22:02.520Z,11.37
2022-09-26T22:24:32.029Z,11.39
2022-09-26T22:27:00.169Z,11.35
2022-09-26T22:29:28.447Z,11.29
2022-09-26T22:31:56.794Z,11.39
2022-09-26T22:34:27.014Z,11.29
2022-09-26T22:36:55.124Z,11.28
2022-09-26T22:39:23.241Z,11.25
2022-09-26T22:41:51.351Z,11.28
2022-09-26T22:44:19.665Z,11.28
2022-09-26T22:46:47.828Z,11.22
2022-09-26T22:49:15.995Z,11.21
2022-09-26T22:51:45.577Z,11.30
2022-09-26T22:54:13.746Z,11.25
2022-09-26T22:56:42.071Z,11.23
2022-09-26T22:59:11.114Z,11.29
2022-09-26T23:01:39.504Z,11.28
2022-09-26T23:04:07.767Z,11.21
2022-09-26T23:06:35.951Z,11.24
2022-09-26T23:09:05.605Z,11.25
2022-09-26T23:11:33.838Z,11.30
2022-09-26T23:14:01.922Z,11.28
2022-09-26T23:16:30.138Z,11.24
2022-09-26T23:18:58.648Z,11.15
2022-09-26T23:21:28.467Z,11.19
2022-09-26T23:23:58.211Z,11.17
2022-09-26T23:26:29.401Z,11.15
2022-09-26T23:28:59.260Z,11.22
2022-09-26T23:31:29.226Z,11.21
2022-09-26T23:33:57.826Z,11.22
2022-09-26T23:36:26.490Z,11.21
2022-09-26T23:38:55.123Z,11.18
2022-09-26T23:41:23.286Z,11.13
2022-09-26T23:43:52.794Z,11.13
2022-09-26T23:46:21.052Z,11.17
2022-09-26T23:48:49.447Z,11.17
2022-09-26T23:51:17.504Z,11.18
2022-09-26T23:53:45.715Z,11.17
2022-09-26T23:56:15.036Z,11.13
2022-09-26T23:58:43.752Z,11.18
